zondag 31 mei 2020 | Home | Bestenlijsten | Bestenlijsten NL | Calculators | Nieuws | Records | Uitslagen | VZA Ranglijsten | Weer |
 
Recent nieuws meer nieuws
28-05: Is snelheid een relatief begrip? Maar dan op herhaling
19-05: Snelheid een relatief begrip?
06-05: Mag huidig niveau hardlopen zomaar vergeleken worden met dat van de jaren 70?
28-04: Ook na 1 juni Run your own race
24-04: Zeeuws record 15 km van John Vermeule meest kansrijk om ooit te worden verbroken
21-04: Kunnen we na 1 juni stoppen met Run your own race?
 
Zoek tenminste met 3 tekens van wedstrijd, datum, plaats of atleet

Scheldesportloop

Terneuzen, zaterdag 6 februari 2016 - Organisatie: Scheldesport
12.8 km
PltsNaam
Tijdkm/umin/kmm/secgap
1  Jente SamsonBerlare44.54minMse   17.105  3:304.75-
2  Stijn VermeerschDenderleeuw46.25minMse   16.546  3:384.60+1:31
3  Davy VanderroostNinove46.48minMse   16.410  3:394.56+1:54
4  Henk De BrauwerWaarschoot50.24minMse   15.238  3:564.23+5:30
5  Tony DemaretSint-Kruis-Winkel51.57minMse   14.783  4:044.11+7:03
6  Endy SlockAxel52.24minM40   14.656  4:064.07+7:30
7  Luc DhontZaffelare53.52minMse   14.257  4:133.96+8:58
8  Daan GlorieHeemskerk54.42minMse   14.040  4:163.90+9:48
9  Cathy PoppeTerneuzen54.47minVse   14.019  4:173.89+9:53
10  Dennis FlorussenTerneuzen54.48minM40   14.015  4:173.89+9:54
11  Chris RoggheDeinze55.29minVse   13.842  4:203.84+10:35
12  Wim de FeijterTerneuzen55.30minMse   13.838  4:203.84+10:36
13  Erik SchelfhoutStekene55.38minMse   13.805  4:213.83+10:44
14  Theo de BotKoewacht56.58minMse   13.482  4:273.74+12:04
15  Leo BrackeAxel56.59minMse   13.478  4:273.74+12:05
16  Ton de BestAmsterdam59.00minMse   13.017  4:373.62+14:06
17  Jan MangnusBorsbeek59.19minMse   12.947  4:383.60+14:25
18  Ramiro AmeneiroKrommenie59.20minMse   12.944  4:383.60+14:26
19  Ko de BruijnKloosterzande59.35minMse   12.890  4:393.58+14:41
20  Martine BouteWaarschoot1.00.07minVse   12.775  4:423.55+15:13
21  Jacques ZamanTerneuzen1.00.29minM50   12.698  4:443.53+15:35
22  Eric van de StarreRaamsdonkveer1.00.52minMse   12.618  4:453.50+15:58
23  John VetteTerneuzen1.01.22minMse   12.515  4:483.48+16:28
24  Guy Van SeverenLovendegem1.02.05minMse   12.370  4:513.44+17:11
25  Christof VoetenWuustwezel1.02.07minMse   12.364  4:513.43+17:13
26  Natasja BooijWalsoorden1.02.09minVse   12.357  4:513.43+17:15
27  Frank HemelsoetTerneuzen1.02.48minMse   12.229  4:543.40+17:54
28  Rene BakkerVught1.05.29minMse   11.728  5:073.26+20:35
29  Ko de KoeyerZaamslag1.06.54minMse   11.480  5:143.19+22:00
30  Elisabeth DehandschutterSint-Niklaas1.07.12minVse   11.429  5:153.17+22:18
31  Rob VeerOverberg1.07.28minMse   11.383  5:163.16+22:34
32  Rene VinkTerneuzen1.08.05minMse   11.280  5:193.13+23:11
33  Andre BrugghemanEvergem1.08.06minMse   11.278  5:193.13+23:12
34  Yves BuysseWachtebeke1.08.07minMse   11.275  5:193.13+23:13
35  Els ZweistraTerneuzen1.09.29minVse   11.053  5:263.07+24:35
36  Marcel decanckBottelare1.10.43minMse   10.860  5:313.02+25:49
37  Romain BolssensKieldrecht1.12.04minMse   10.657  5:382.96+27:10
38  Jacky DoomsTerneuzen1.17.03minMse   9.968  6:012.77+32:09
39  Paul HuitemaTerneuzen1.17.04minMse   9.965  6:012.77+32:10
40  Christian van de AkkerPhilippine1.26.18minVse   8.899  6:452.47+41:24
41  Wouter BilTerneuzen1.31.05minMse   8.432  7:072.34+46:11
Mannen: 34 (82.93%) => M40=2 - M50=1 - Mse=31
Vrouwen: 7 (17.07%) => Vse=7

Overzicht Top3, winnares en aantal deelnemers van aanwezige edities

JaarWinnaarTijd2eTijd 3eTijdWinnaresTijd#

12.8 km

2019Mark Verhage45:42Chris de Smit47:59Sander d'Hont48:31Eliny Diakakis55:5447
2017Sander Post44:06Mark Verhage47:04Jan Riemens47:25Carolien van de Kreeke50:3147
2016Jente Samson44:54Stijn Vermeersch46:25Davy Vanderroost46:48Cathy Poppe54:4741
2015Sander Post45:24Jody Schoorens45:32Erik Goossen46:29Fiona Reijers1:01:1857
2014Henk De Brauwer47:26Erwin van den Broeke47:59Sander Post48:28Katrien Lievens54:2963
6.6 km
PltsNaam
Tijdkm/umin/kmm/secgap
1  Jens TaeckensOudenaarde24.20minMse   16.274  3:414.52-
2  Marc BosmanMelsele27.53minMse   14.202  4:133.95+3:33
3  Andy CocquytZelzate28.04minMse   14.109  4:153.92+3:44
4  Irma KarahotkaZottegem29.40minVse   13.348  4:303.71+5:20
5  Stefan van DammeTerneuzen29.50minMse   13.274  4:313.69+5:30
6  Bennie BouterseTerneuzen30.28minMse   12.998  4:373.61+6:08
7  Alex DewartLochristi32.02minMse   12.362  4:513.43+7:42
8  Marc GorisVosselaar32.33minMse   12.166  4:563.38+8:13
9  Marc de BaetsHeusden33.41minMse   11.757  5:063.27+9:21
10  Nic VerkinderenGent33.42minMse   11.751  5:063.26+9:22
11  Ebe BlaauwTerneuzen33.44minM60   11.739  5:073.26+9:24
12  Wanda ZegersTerneuzen34.15minVse   11.562  5:113.21+9:55
13  Kristiaan GijsselsZomergem34.50minMse   11.368  5:173.16+10:30
14  Daan DielemanZaamslag34.54minMse   11.347  5:173.15+10:34
15  Irenee GoethalsOostakker35.48minMse   11.061  5:253.07+11:28
16  Chris VerhageZaamslag36.27minM60   10.864  5:313.02+12:07
17  Mia ClijmansVosselaar36.33minVse   10.834  5:323.01+12:13
18  Arsene van LaekenAssenede37.09minMse   10.659  5:382.96+12:49
19  Didier Vanden BulckeGent37.20minMse   10.607  5:392.95+13:00
20  Jovan DierkxTerneuzen37.31minMse   10.555  5:412.93+13:11
21  Bram DeesPhilippine37.34minMse   10.541  5:422.93+13:14
22  Marc de KunderTerneuzen37.46minMse   10.485  5:432.91+13:26
23  William VerdonckBeveren-Waas38.46minMse   10.215  5:522.84+14:26
24  Emanuela BrackeAxel39.11minVse   10.106  5:562.81+14:51
25  Veerle Van RentergemSint-Kruis-Winkel39.41minVse   9.979  6:012.77+15:21
26  Rudy Vande VeldeWachtebeke39.53minMse   9.929  6:032.76+15:33
27  Ilse de ZeeuwTerneuzen41.01minVse   9.655  6:132.68+16:41
28  Carlos De WillsmackerAalter41.07minMse   9.631  6:142.68+16:47
29  Chantal ZahradnikTerneuzen41.09minVse   9.623  6:142.67+16:49
30  Wesley ZahradnikTerneuzen41.09minMse   9.623  6:142.67+16:49
31  Jef Van den HeuvelReet42.09minMse   9.395  6:232.61+17:49
32  Wim CoppietersStrombeek42.19minMse   9.358  6:252.60+17:59
33  Aime SamsonSint-Pauwels42.19minMse   9.358  6:252.60+17:59
34  Dick VerhelstZaamslag46.54minMse   8.443  7:062.35+22:34
35  Kathleen Vande VeldeWachtebeke49.14minVse   8.043  7:282.23+24:54
36  Dominique Van den DaeleWachtebeke49.20minVse   8.027  7:282.23+25:00
Mannen: 27 (75%) => M60=2 - Mse=25
Vrouwen: 9 (25%) => Vse=9

Snelheid en tempo zijn berekend op de vermelde afstand. Bij een onjuiste afstand wijken deze uiteraard af!

Fouten melden via info@atletiekzeeland.nl Categorie fout? Mail dan geboortedatum. (geldt alleen voor Zeeuwen)

De server had 0.215 seconden nodig om deze lijst met 77 prestaties samen te stellen.

Terug naar boven


 
Atletiek Zeeland © 2020